Time;durP1;ratioP1;P1;durP2;ratioP2;P2;SDS_P1;SDS_P2;PMS_P1;PMS_P2;Temp;Humidity;BMP_temperature;BMP_pressure;BME280_temperature;BME280_humidity;BME280_pressure;Samples;Min_cycle;Max_cycle;Signal;HPM_P1;HPM_P2
2021/08/10 00:00:18;;;;;;;3.95;2.22;;;;;;;;;;5026615;28;20018;-91
2021/08/10 00:02:43;;;;;;;5.30;2.40;;;;;;;;;;5020907;28;20018;-91
2021/08/10 00:05:09;;;;;;;5.53;2.38;;;;;;;;;;5032274;28;20024;-91
2021/08/10 00:07:34;;;;;;;5.13;2.38;;;;;;;;;;5031992;28;20021;-91
2021/08/10 00:09:59;;;;;;;7.47;2.10;;;;;;;;;;5021736;28;20105;-90
2021/08/10 00:12:25;;;;;;;3.85;2.13;;;;;;;;;;5012186;28;20079;-91
2021/08/10 00:14:50;;;;;;;7.20;2.80;;;;;;;;;;5012302;28;20045;-91
2021/08/10 00:17:15;;;;;;;5.28;2.30;;;;;;;;;;5011923;28;20117;-90
2021/08/10 00:19:40;;;;;;;6.15;2.40;;;;;;;;;;5011995;28;20049;-90
2021/08/10 00:22:06;;;;;;;5.90;2.58;;;;;;;;;;5012271;28;20049;-90
2021/08/10 00:24:31;;;;;;;7.18;2.42;;;;;;;;;;5012010;28;20018;-91
2021/08/10 00:26:58;;;;;;;4.75;2.47;;;;;;;;;;5012130;28;20085;-91
2021/08/10 00:29:24;;;;;;;6.68;2.45;;;;;;;;;;5011967;28;20084;-91
2021/08/10 00:31:49;;;;;;;4.90;2.63;;;;;;;;;;5012015;28;20477;-91
2021/08/10 00:34:14;;;;;;;5.90;2.63;;;;;;;;;;5012160;28;20053;-91
2021/08/10 00:36:39;;;;;;;5.90;2.65;;;;;;;;;;5011944;28;20049;-90
2021/08/10 00:39:05;;;;;;;6.38;3.05;;;;;;;;;;5011715;28;20010;-91
2021/08/10 00:41:31;;;;;;;4.82;2.70;;;;;;;;;;5011731;28;20121;-91
2021/08/10 00:43:56;;;;;;;8.02;2.60;;;;;;;;;;5011808;28;20086;-90
2021/08/10 00:46:21;;;;;;;7.85;2.78;;;;;;;;;;5011691;28;20113;-91
2021/08/10 00:48:46;;;;;;;8.95;3.20;;;;;;;;;;5011232;28;20470;-91
2021/08/10 00:51:13;;;;;;;7.88;3.30;;;;;;;;;;5012159;28;20311;-91
2021/08/10 00:53:38;;;;;;;7.95;3.13;;;;;;;;;;5011693;28;20390;-90
2021/08/10 00:56:04;;;;;;;6.88;2.80;;;;;;;;;;5010908;28;20032;-89
2021/08/10 00:58:31;;;;;;;7.60;2.95;;;;;;;;;;5011533;28;20385;-91
2021/08/10 01:00:56;;;;;;;9.90;2.58;;;;;;;;;;5012235;28;20519;-92
2021/08/10 01:03:21;;;;;;;6.18;2.45;;;;;;;;;;5018861;28;20029;-91
2021/08/10 01:05:47;;;;;;;5.30;2.42;;;;;;;;;;5018512;28;20087;-92
2021/08/10 01:08:20;;;;;;;6.70;2.72;;;;;;;;;;5018642;28;20026;-92
2021/08/10 01:10:51;;;;;;;5.35;2.25;;;;;;;;;;5018498;28;20018;-91
2021/08/10 01:13:23;;;;;;;8.07;3.20;;;;;;;;;;5018803;28;20095;-93
2021/08/10 01:16:05;;;;;;;7.17;2.60;;;;;;;;;;5045668;28;20029;-92
2021/08/10 01:18:30;;;;;;;;;;;;;;;;;;5000129;28;20275;-93
2021/08/10 01:20:55;;;;;;;5.00;2.28;;;;;;;;;;5044527;28;19905;-91
2021/08/10 01:23:24;;;;;;;5.43;2.35;;;;;;;;;;5018290;28;20247;-92
2021/08/10 01:25:49;;;;;;;6.93;2.60;;;;;;;;;;5018568;28;20026;-93
2021/08/10 01:28:28;;;;;;;5.00;2.30;;;;;;;;;;5051552;28;20028;-92
2021/08/10 01:31:05;;;;;;;6.22;2.25;;;;;;;;;;5018601;28;20033;-93
2021/08/10 01:33:33;;;;;;;6.32;2.13;;;;;;;;;;5051730;28;20036;-92
2021/08/10 01:35:58;;;;;;;5.18;1.85;;;;;;;;;;5018569;28;20018;-91
2021/08/10 01:38:25;;;;;;;5.03;2.38;;;;;;;;;;5018425;28;20113;-92
2021/08/10 01:40:50;;;;;;;3.50;2.00;;;;;;;;;;5018691;28;20385;-92
2021/08/10 01:43:16;;;;;;;4.07;2.08;;;;;;;;;;5018142;28;20014;-92
2021/08/10 01:45:43;;;;;;;4.63;2.33;;;;;;;;;;5018042;28;20504;-92
2021/08/10 01:48:10;;;;;;;5.25;2.13;;;;;;;;;;5017982;28;20071;-92
2021/08/10 01:50:36;;;;;;;8.20;2.17;;;;;;;;;;5018037;28;20117;-92
2021/08/10 01:53:02;;;;;;;6.80;2.10;;;;;;;;;;5018258;28;20458;-92
2021/08/10 01:55:28;;;;;;;4.28;2.30;;;;;;;;;;5018403;28;20216;-91
2021/08/10 01:57:53;;;;;;;5.95;2.38;;;;;;;;;;5018063;28;20018;-92
2021/08/10 02:00:19;;;;;;;7.50;2.45;;;;;;;;;;5017934;28;20022;-92
2021/08/10 02:02:44;;;;;;;4.10;1.90;;;;;;;;;;5017878;28;20021;-92
2021/08/10 02:05:10;;;;;;;6.80;2.20;;;;;;;;;;5017800;28;20014;-91
2021/08/10 02:07:36;;;;;;;6.38;2.50;;;;;;;;;;5018237;28;20460;-92
2021/08/10 02:10:03;;;;;;;4.13;2.40;;;;;;;;;;5017897;28;20021;-92
2021/08/10 02:12:28;;;;;;;4.47;2.25;;;;;;;;;;5016769;28;20045;-91
2021/08/10 02:14:53;;;;;;;5.18;2.42;;;;;;;;;;5014569;28;20021;-92
2021/08/10 02:17:19;;;;;;;5.10;2.08;;;;;;;;;;5014665;28;20022;-92
2021/08/10 02:19:45;;;;;;;7.50;2.50;;;;;;;;;;5014334;28;20132;-92
2021/08/10 02:22:11;;;;;;;8.45;2.20;;;;;;;;;;5014811;28;20009;-91
2021/08/10 02:24:38;;;;;;;5.82;2.40;;;;;;;;;;5015282;28;20018;-92
2021/08/10 02:27:06;;;;;;;4.38;2.00;;;;;;;;;;5014673;28;20358;-92
2021/08/10 02:29:37;;;;;;;4.88;2.20;;;;;;;;;;5015092;28;20026;-92
2021/08/10 02:32:03;;;;;;;7.95;1.95;;;;;;;;;;5014961;28;20548;-92
2021/08/10 02:34:29;;;;;;;5.43;1.85;;;;;;;;;;5014725;28;20026;-92
2021/08/10 02:36:58;;;;;;;7.15;2.40;;;;;;;;;;5014385;28;20049;-91
2021/08/10 02:39:23;;;;;;;6.22;2.55;;;;;;;;;;5014442;28;20018;-91
2021/08/10 02:41:50;;;;;;;5.85;2.38;;;;;;;;;;5014373;28;20018;-92
2021/08/10 02:44:15;;;;;;;5.65;2.20;;;;;;;;;;5014341;28;20050;-92
2021/08/10 02:46:40;;;;;;;4.93;1.98;;;;;;;;;;5047460;28;20072;-92
2021/08/10 02:49:09;;;;;;;5.65;2.22;;;;;;;;;;5014619;28;20072;-92
2021/08/10 02:51:35;;;;;;;9.77;2.10;;;;;;;;;;5014362;28;20033;-92
2021/08/10 02:54:00;;;;;;;5.43;1.75;;;;;;;;;;5014007;28;20028;-92
2021/08/10 02:56:28;;;;;;;3.53;1.83;;;;;;;;;;5014221;28;20454;-93
2021/08/10 02:59:12;;;;;;;3.85;2.10;;;;;;;;;;5013590;28;20385;-92
2021/08/10 03:01:42;;;;;;;5.38;2.25;;;;;;;;;;5013966;28;20014;-92
2021/08/10 03:04:08;;;;;;;4.55;2.08;;;;;;;;;;5014045;28;20014;-92
2021/08/10 03:06:34;;;;;;;4.68;1.70;;;;;;;;;;5014151;28;20026;-92
2021/08/10 03:09:00;;;;;;;5.60;2.03;;;;;;;;;;5046932;28;20446;-91
2021/08/10 03:11:26;;;;;;;4.18;2.22;;;;;;;;;;5013991;28;20470;-91
2021/08/10 03:13:52;;;;;;;5.70;2.08;;;;;;;;;;5015248;28;20034;-91
2021/08/10 03:16:18;;;;;;;9.20;1.83;;;;;;;;;;5013772;28;20117;-92
2021/08/10 03:18:45;;;;;;;9.20;2.22;;;;;;;;;;5014776;28;20473;-92
2021/08/10 03:21:11;;;;;;;9.63;2.42;;;;;;;;;;5046979;28;20038;-91
2021/08/10 03:23:38;;;;;;;6.13;2.05;;;;;;;;;;5013553;28;20072;-92
2021/08/10 03:26:04;;;;;;;5.20;1.83;;;;;;;;;;5013381;28;20022;-92
2021/08/10 03:28:30;;;;;;;4.25;1.88;;;;;;;;;;5013532;28;20025;-91
2021/08/10 03:30:56;;;;;;;3.55;1.63;;;;;;;;;;5013609;28;20029;-92
2021/08/10 03:33:23;;;;;;;3.55;2.00;;;;;;;;;;5013753;28;20018;-92
2021/08/10 03:35:49;;;;;;;4.45;1.85;;;;;;;;;;5014801;28;20381;-92
2021/08/10 03:38:14;;;;;;;6.88;2.03;;;;;;;;;;5013142;28;20033;-91
2021/08/10 03:40:39;;;;;;;5.47;1.40;;;;;;;;;;5013222;28;20025;-92
2021/08/10 03:43:05;;;;;;;3.65;1.80;;;;;;;;;;5013214;28;20032;-92
2021/08/10 03:45:30;;;;;;;6.80;2.00;;;;;;;;;;5013162;28;20032;-92
2021/08/10 03:47:56;;;;;;;4.15;1.70;;;;;;;;;;5013552;28;20025;-91
2021/08/10 03:50:21;;;;;;;3.70;1.73;;;;;;;;;;5013070;28;20017;-92
2021/08/10 03:52:50;;;;;;;7.20;2.47;;;;;;;;;;5012780;28;20022;-91
2021/08/10 03:55:15;;;;;;;5.43;2.28;;;;;;;;;;5013618;28;20026;-92
2021/08/10 03:57:41;;;;;;;3.53;1.70;;;;;;;;;;5013055;28;20076;-92
2021/08/10 04:00:07;;;;;;;5.38;2.10;;;;;;;;;;5012968;28;20424;-91
2021/08/10 04:02:33;;;;;;;6.93;2.15;;;;;;;;;;5012567;28;20045;-92
2021/08/10 04:04:58;;;;;;;8.68;2.00;;;;;;;;;;5012881;28;20421;-92
2021/08/10 04:07:24;;;;;;;4.97;1.70;;;;;;;;;;5012600;28;20056;-92
2021/08/10 04:09:50;;;;;;;3.35;1.52;;;;;;;;;;5012766;28;20029;-92
2021/08/10 04:12:15;;;;;;;8.65;1.88;;;;;;;;;;5012678;28;20025;-91
2021/08/10 04:14:41;;;;;;;4.40;2.00;;;;;;;;;;5012778;28;20026;-91
2021/08/10 04:17:07;;;;;;;4.80;1.90;;;;;;;;;;5012787;28;20018;-91
2021/08/10 04:19:34;;;;;;;4.05;1.83;;;;;;;;;;5012050;28;20025;-91
2021/08/10 04:22:00;;;;;;;4.47;1.80;;;;;;;;;;5013871;28;20333;-92
2021/08/10 04:24:25;;;;;;;2.95;1.70;;;;;;;;;;5012650;28;20018;-91
2021/08/10 04:26:50;;;;;;;4.03;1.98;;;;;;;;;;5017955;28;20010;-92
2021/08/10 04:29:15;;;;;;;4.38;2.20;;;;;;;;;;5020799;28;20469;-91
2021/08/10 04:31:41;;;;;;;3.60;2.00;;;;;;;;;;5012172;28;20099;-92
2021/08/10 04:34:07;;;;;;;6.90;2.38;;;;;;;;;;5012502;28;20104;-92
2021/08/10 04:36:32;;;;;;;6.45;2.65;;;;;;;;;;5012076;28;20141;-91
2021/08/10 04:38:59;;;;;;;7.32;3.03;;;;;;;;;;5012483;28;20025;-91
2021/08/10 04:41:24;;;;;;;5.97;2.75;;;;;;;;;;5012414;28;20101;-91
2021/08/10 04:43:49;;;;;;;9.52;2.92;;;;;;;;;;5012319;28;20018;-92
2021/08/10 04:46:14;;;;;;;4.38;2.33;;;;;;;;;;5012549;28;20026;-91
2021/08/10 04:48:40;;;;;;;5.18;2.38;;;;;;;;;;5012468;28;20071;-92
2021/08/10 04:51:05;;;;;;;6.05;2.50;;;;;;;;;;5012653;28;20018;-92
2021/08/10 04:53:30;;;;;;;3.85;1.70;;;;;;;;;;5012559;28;20105;-92
2021/08/10 04:55:55;;;;;;;8.20;2.80;;;;;;;;;;5012746;28;20028;-92
2021/08/10 04:58:21;;;;;;;7.05;2.65;;;;;;;;;;5012357;28;20021;-92
2021/08/10 05:00:48;;;;;;;5.93;2.45;;;;;;;;;;5012049;28;20048;-91
2021/08/10 05:03:13;;;;;;;5.85;2.58;;;;;;;;;;5012268;28;20500;-92
2021/08/10 05:05:39;;;;;;;4.97;2.90;;;;;;;;;;5012126;28;20022;-92
2021/08/10 05:08:06;;;;;;;8.98;2.88;;;;;;;;;;5012211;28;20030;-92
2021/08/10 05:10:31;;;;;;;8.38;3.45;;;;;;;;;;5011865;28;20363;-92
2021/08/10 05:12:56;;;;;;;7.65;2.78;;;;;;;;;;5012581;28;20029;-92
2021/08/10 05:15:21;;;;;;;5.97;2.80;;;;;;;;;;5012312;28;20026;-92
2021/08/10 05:17:46;;;;;;;6.03;2.92;;;;;;;;;;5012027;28;20021;-91
2021/08/10 05:20:12;;;;;;;5.57;2.67;;;;;;;;;;5012187;28;20014;-92
2021/08/10 05:22:37;;;;;;;4.45;2.40;;;;;;;;;;5012179;28;20028;-92
2021/08/10 05:25:05;;;;;;;5.40;2.63;;;;;;;;;;5012102;28;20453;-92
2021/08/10 05:27:31;;;;;;;7.07;2.75;;;;;;;;;;5012500;28;20030;-91
2021/08/10 05:29:56;;;;;;;4.82;2.58;;;;;;;;;;5012007;28;20377;-92
2021/08/10 05:32:21;;;;;;;7.93;2.92;;;;;;;;;;5012077;28;20061;-91
2021/08/10 05:34:46;;;;;;;7.68;2.80;;;;;;;;;;5012044;28;20131;-92
2021/08/10 05:37:11;;;;;;;4.88;2.50;;;;;;;;;;5011807;28;20050;-92
2021/08/10 05:39:37;;;;;;;6.38;2.70;;;;;;;;;;5011956;28;20337;-92
2021/08/10 05:42:02;;;;;;;4.70;2.25;;;;;;;;;;5011008;28;20014;-92
2021/08/10 05:44:27;;;;;;;6.15;2.70;;;;;;;;;;5012201;28;20026;-91
2021/08/10 05:46:53;;;;;;;7.05;2.45;;;;;;;;;;5010872;28;20033;-92
2021/08/10 05:49:19;;;;;;;7.63;3.28;;;;;;;;;;5012655;28;20124;-91
2021/08/10 05:51:44;;;;;;;5.82;2.53;;;;;;;;;;5014584;28;20045;-91
2021/08/10 05:54:13;;;;;;;4.65;2.60;;;;;;;;;;5014462;28;20049;-91
2021/08/10 05:56:38;;;;;;;11.40;3.05;;;;;;;;;;5014443;28;20018;-92
2021/08/10 05:59:03;;;;;;;5.63;2.97;;;;;;;;;;5014123;28;20033;-91
2021/08/10 06:01:28;;;;;;;7.78;3.22;;;;;;;;;;5014570;28;20557;-91
2021/08/10 06:03:53;;;;;;;4.70;2.60;;;;;;;;;;5020636;28;20096;-91
2021/08/10 06:06:19;;;;;;;7.93;2.65;;;;;;;;;;5023487;28;20469;-91
2021/08/10 06:08:44;;;;;;;8.90;3.00;;;;;;;;;;5014955;28;20105;-92
2021/08/10 06:11:09;;;;;;;10.45;3.80;;;;;;;;;;5015170;28;20045;-92
2021/08/10 06:13:35;;;;;;;9.40;2.88;;;;;;;;;;5015394;28;20022;-92
2021/08/10 06:16:01;;;;;;;5.18;2.47;;;;;;;;;;5014942;28;20121;-93
2021/08/10 06:18:26;;;;;;;6.93;3.53;;;;;;;;;;5014973;28;20113;-92
2021/08/10 06:20:51;;;;;;;9.63;3.13;;;;;;;;;;5015176;28;20022;-91
2021/08/10 06:23:16;;;;;;;4.32;2.08;;;;;;;;;;5014827;28;20030;-92
2021/08/10 06:25:42;;;;;;;5.05;3.05;;;;;;;;;;5014803;28;20461;-92
2021/08/10 06:28:07;;;;;;;8.45;3.15;;;;;;;;;;5014892;28;20151;-92
2021/08/10 06:30:32;;;;;;;6.10;3.10;;;;;;;;;;5016223;28;20040;-92
2021/08/10 06:32:57;;;;;;;7.32;2.97;;;;;;;;;;5014605;28;20032;-91
2021/08/10 06:35:22;;;;;;;10.80;3.60;;;;;;;;;;5014405;28;20384;-92
2021/08/10 06:37:48;;;;;;;9.52;2.80;;;;;;;;;;5014036;28;20030;-92
2021/08/10 06:40:13;;;;;;;8.77;3.47;;;;;;;;;;5014618;28;20014;-92
2021/08/10 06:42:38;;;;;;;6.22;2.58;;;;;;;;;;5014053;28;20017;-91
2021/08/10 06:45:04;;;;;;;5.80;3.33;;;;;;;;;;5014215;28;20014;-91
2021/08/10 06:47:29;;;;;;;7.45;2.92;;;;;;;;;;5014630;28;20088;-92
2021/08/10 06:49:55;;;;;;;21.83;3.40;;;;;;;;;;5014566;28;20453;-92
2021/08/10 06:52:20;;;;;;;5.65;3.13;;;;;;;;;;5014758;28;20034;-92
2021/08/10 06:54:46;;;;;;;7.90;2.85;;;;;;;;;;5014157;28;20041;-92
2021/08/10 06:57:11;;;;;;;7.70;2.92;;;;;;;;;;5013862;28;20505;-92
2021/08/10 06:59:37;;;;;;;7.40;3.58;;;;;;;;;;5013430;28;20017;-91
2021/08/10 07:02:03;;;;;;;6.45;3.10;;;;;;;;;;5013639;28;20026;-92
2021/08/10 07:04:28;;;;;;;5.88;2.88;;;;;;;;;;5013797;28;20045;-92
2021/08/10 07:06:54;;;;;;;6.50;2.92;;;;;;;;;;5013524;28;20385;-91
2021/08/10 07:09:19;;;;;;;6.55;3.15;;;;;;;;;;5014212;28;20037;-91
2021/08/10 07:11:44;;;;;;;10.52;2.95;;;;;;;;;;5013760;28;20018;-92
2021/08/10 07:14:13;;;;;;;7.82;3.10;;;;;;;;;;5013393;28;20454;-92
2021/08/10 07:16:41;;;;;;;10.30;3.42;;;;;;;;;;5013101;28;20010;-92
2021/08/10 07:19:07;;;;;;;8.13;3.03;;;;;;;;;;5012806;28;20026;-91
2021/08/10 07:21:32;;;;;;;7.88;3.33;;;;;;;;;;5013114;28;20141;-91
2021/08/10 07:23:57;;;;;;;6.80;2.83;;;;;;;;;;5013287;28;20037;-92
2021/08/10 07:26:23;;;;;;;6.65;3.00;;;;;;;;;;5013259;28;20025;-91
2021/08/10 07:28:48;;;;;;;7.50;2.78;;;;;;;;;;5013021;28;20105;-92
2021/08/10 07:31:14;;;;;;;5.88;2.53;;;;;;;;;;5013038;28;20022;-92
2021/08/10 07:33:39;;;;;;;7.95;2.95;;;;;;;;;;5012539;28;20381;-91
2021/08/10 07:36:04;;;;;;;7.13;3.13;;;;;;;;;;5013728;28;20026;-91
2021/08/10 07:38:29;;;;;;;9.25;2.53;;;;;;;;;;5013671;28;20504;-92
2021/08/10 07:40:55;;;;;;;6.97;2.58;;;;;;;;;;5013942;28;20117;-92
2021/08/10 07:43:20;;;;;;;5.20;2.60;;;;;;;;;;5013430;28;20026;-92
2021/08/10 07:45:45;;;;;;;9.55;2.83;;;;;;;;;;5013571;28;20022;-91
2021/08/10 07:48:10;;;;;;;8.10;3.08;;;;;;;;;;5013643;28;20029;-91
2021/08/10 07:50:36;;;;;;;8.25;3.67;;;;;;;;;;5012384;28;20025;-90
2021/08/10 07:53:01;;;;;;;8.88;2.95;;;;;;;;;;5009324;28;20590;-91
2021/08/10 07:55:26;;;;;;;6.03;2.67;;;;;;;;;;5011915;28;20025;-91
2021/08/10 07:57:52;;;;;;;8.40;3.25;;;;;;;;;;5012200;28;20084;-91
2021/08/10 08:00:17;;;;;;;7.10;3.05;;;;;;;;;;5011865;28;20018;-91
2021/08/10 08:02:42;;;;;;;5.72;2.50;;;;;;;;;;5011630;28;20021;-91
2021/08/10 08:05:08;;;;;;;8.68;3.25;;;;;;;;;;5012295;28;20529;-91
2021/08/10 08:07:33;;;;;;;9.18;3.25;;;;;;;;;;5011590;28;20025;-90
2021/08/10 08:09:59;;;;;;;6.10;2.90;;;;;;;;;;5012062;28;20425;-91
2021/08/10 08:12:24;;;;;;;8.52;3.05;;;;;;;;;;5012182;28;20080;-91
2021/08/10 08:14:49;;;;;;;7.38;2.92;;;;;;;;;;5013123;28;20034;-91
2021/08/10 08:17:14;;;;;;;6.05;3.50;;;;;;;;;;5012024;28;20137;-90
2021/08/10 08:19:40;;;;;;;9.18;3.65;;;;;;;;;;5012636;28;20049;-93
2021/08/10 08:22:05;;;;;;;10.43;3.33;;;;;;;;;;5013230;28;20021;-91
2021/08/10 08:24:30;;;;;;;9.07;3.40;;;;;;;;;;5013258;28;20157;-90
2021/08/10 08:26:56;;;;;;;6.65;3.38;;;;;;;;;;5012758;28;20029;-90
2021/08/10 08:29:21;;;;;;;7.55;3.20;;;;;;;;;;5012908;28;20068;-90
2021/08/10 08:31:46;;;;;;;6.43;3.30;;;;;;;;;;5012689;28;20072;-91
2021/08/10 08:34:11;;;;;;;7.75;2.97;;;;;;;;;;5013051;28;20022;-91
2021/08/10 08:36:37;;;;;;;8.85;3.17;;;;;;;;;;5012459;28;20021;-90
2021/08/10 08:39:02;;;;;;;12.13;4.50;;;;;;;;;;5011393;28;20496;-89
2021/08/10 08:41:27;;;;;;;9.63;3.90;;;;;;;;;;5011034;28;20026;-89
2021/08/10 08:43:53;;;;;;;8.07;3.70;;;;;;;;;;5044699;28;20033;-89
2021/08/10 08:46:20;;;;;;;6.53;3.25;;;;;;;;;;5011200;28;20029;-90
2021/08/10 08:48:46;;;;;;;9.77;4.30;;;;;;;;;;5011448;28;20018;-89
2021/08/10 08:51:11;;;;;;;7.78;3.50;;;;;;;;;;5009783;28;20037;-90
2021/08/10 08:53:41;;;;;;;5.57;3.15;;;;;;;;;;5011174;28;20026;-89
2021/08/10 08:56:07;;;;;;;5.32;2.38;;;;;;;;;;5011155;28;20010;-89
2021/08/10 08:58:32;;;;;;;10.15;3.10;;;;;;;;;;5011341;28;20018;-89
2021/08/10 09:00:57;;;;;;;5.50;2.47;;;;;;;;;;5011612;28;20018;-89
2021/08/10 09:03:22;;;;;;;4.85;2.63;;;;;;;;;;5010800;28;20041;-89
2021/08/10 09:05:48;;;;;;;7.53;2.80;;;;;;;;;;5011563;28;20056;-90
2021/08/10 09:08:26;;;;;;;6.50;2.75;;;;;;;;;;5011211;28;20072;-89
2021/08/10 09:10:56;;;;;;;6.45;2.60;;;;;;;;;;5010917;28;20469;-90
2021/08/10 09:13:21;;;;;;;4.55;2.10;;;;;;;;;;5010635;28;20030;-90
2021/08/10 09:15:47;;;;;;;6.45;3.08;;;;;;;;;;5011547;28;20014;-90
2021/08/10 09:18:13;;;;;;;7.38;3.10;;;;;;;;;;5010947;28;20037;-89
2021/08/10 09:20:39;;;;;;;8.70;2.72;;;;;;;;;;5011424;28;20065;-87
2021/08/10 09:23:05;;;;;;;7.80;3.15;;;;;;;;;;5012357;28;20022;-87
2021/08/10 09:25:32;;;;;;;8.68;3.10;;;;;;;;;;5014237;28;20113;-87
2021/08/10 09:28:02;;;;;;;4.80;2.22;;;;;;;;;;5014687;28;20037;-86
2021/08/10 09:30:27;;;;;;;7.30;2.95;;;;;;;;;;5014911;28;20026;-87
2021/08/10 09:32:52;;;;;;;9.82;3.25;;;;;;;;;;5015992;28;20091;-87
2021/08/10 09:35:19;;;;;;;10.40;3.00;;;;;;;;;;5047158;28;20029;-87
2021/08/10 09:38:04;;;;;;;4.03;2.00;;;;;;;;;;5014834;28;20026;-87
2021/08/10 09:40:33;;;;;;;4.60;2.60;;;;;;;;;;5047284;28;20116;-87
2021/08/10 09:43:28;;;;;;;8.52;2.72;;;;;;;;;;5014436;28;20108;-87
2021/08/10 09:46:04;;;;;;;5.40;2.60;;;;;;;;;;5000980;28;20569;-87
2021/08/10 09:48:29;;;;;;;7.55;2.90;;;;;;;;;;5015602;28;20026;-88
2021/08/10 09:51:04;;;;;;;8.57;2.33;;;;;;;;;;5014393;28;20025;-87
2021/08/10 09:53:29;;;;;;;4.10;2.63;;;;;;;;;;5014165;28;20365;-87
2021/08/10 09:55:55;;;;;;;4.97;2.30;;;;;;;;;;5014885;28;20018;-88
2021/08/10 09:58:20;;;;;;;6.90;2.60;;;;;;;;;;5014517;28;20036;-88
2021/08/10 10:00:46;;;;;;;4.10;2.50;;;;;;;;;;5014442;28;20381;-88
2021/08/10 10:03:18;;;;;;;4.72;2.40;;;;;;;;;;5014471;28;20053;-87
2021/08/10 10:05:44;;;;;;;6.05;2.38;;;;;;;;;;5014080;28;20030;-88
2021/08/10 10:08:20;;;;;;;4.90;2.63;;;;;;;;;;5013200;28;20030;-88
2021/08/10 10:10:45;;;;;;;5.55;2.30;;;;;;;;;;5045238;28;20208;-88
2021/08/10 10:13:13;;;;;;;4.85;2.60;;;;;;;;;;5013917;28;20189;-88
2021/08/10 10:15:38;;;;;;;4.40;2.10;;;;;;;;;;5012720;28;20113;-87
2021/08/10 10:18:04;;;;;;;5.75;2.50;;;;;;;;;;5013263;28;20108;-88
2021/08/10 10:20:29;;;;;;;5.47;2.38;;;;;;;;;;5012267;28;20117;-88
2021/08/10 10:22:54;;;;;;;12.55;2.80;;;;;;;;;;5013552;28;20018;-88
2021/08/10 10:25:23;;;;;;;5.50;2.08;;;;;;;;;;5013841;28;20030;-88
2021/08/10 10:27:48;;;;;;;5.25;2.40;;;;;;;;;;5013793;28;20026;-88
2021/08/10 10:30:13;;;;;;;5.78;2.53;;;;;;;;;;5013146;28;20037;-88
2021/08/10 10:32:39;;;;;;;7.93;1.92;;;;;;;;;;5013796;28;20030;-88
2021/08/10 10:35:04;;;;;;;8.68;2.63;;;;;;;;;;5012762;28;20032;-89
2021/08/10 10:37:31;;;;;;;5.50;2.40;;;;;;;;;;5013831;28;20026;-88
2021/08/10 10:40:07;;;;;;;4.32;2.25;;;;;;;;;;5014625;28;20052;-87
2021/08/10 10:42:32;;;;;;;4.22;2.35;;;;;;;;;;5013790;28;20480;-88
2021/08/10 10:44:57;;;;;;;3.28;2.20;;;;;;;;;;5013441;28;20025;-88
2021/08/10 10:47:23;;;;;;;8.57;2.22;;;;;;;;;;5013441;28;20656;-88
2021/08/10 10:50:09;;;;;;;8.00;2.58;;;;;;;;;;5045344;28;20078;-88
2021/08/10 10:52:34;;;;;;;3.63;2.42;;;;;;;;;;5033159;28;20124;-88
2021/08/10 10:55:00;;;;;;;4.47;2.20;;;;;;;;;;5013910;28;20068;-88
2021/08/10 10:57:28;;;;;;;6.45;2.60;;;;;;;;;;5012112;28;20385;-87
2021/08/10 10:59:54;;;;;;;4.70;2.80;;;;;;;;;;5014143;28;20026;-87
2021/08/10 11:02:22;;;;;;;6.05;2.95;;;;;;;;;;5012920;28;20014;-87
2021/08/10 11:05:17;;;;;;;6.80;3.05;;;;;;;;;;5013308;28;20080;-88
2021/08/10 11:08:01;;;;;;;6.88;2.75;;;;;;;;;;4991130;28;20041;-87
2021/08/10 11:10:39;;;;;;;7.72;2.95;;;;;;;;;;5013020;28;20049;-87
2021/08/10 11:13:25;;;;;;;7.13;3.88;;;;;;;;;;5010271;28;20026;-87
2021/08/10 11:15:50;;;;;;;7.18;3.72;;;;;;;;;;5012122;28;20120;-87
2021/08/10 11:18:15;;;;;;;7.00;3.85;;;;;;;;;;5012469;28;20116;-88
2021/08/10 11:20:43;;;;;;;6.57;3.15;;;;;;;;;;5013239;28;20072;-87
2021/08/10 11:23:14;;;;;;;8.77;3.13;;;;;;;;;;5045888;28;20009;-87
2021/08/10 11:25:40;;;;;;;4.80;2.53;;;;;;;;;;5045390;28;20112;-87
2021/08/10 11:28:24;;;;;;;6.65;3.00;;;;;;;;;;5013674;28;20061;-87
2021/08/10 11:30:49;;;;;;;6.38;2.65;;;;;;;;;;5046026;28;20021;-88
2021/08/10 11:33:29;;;;;;;5.78;2.72;;;;;;;;;;5013003;28;20021;-89
2021/08/10 11:35:55;;;;;;;6.63;2.92;;;;;;;;;;5014172;28;20049;-88
2021/08/10 11:38:23;;;;;;;9.35;3.15;;;;;;;;;;5012672;28;20087;-88
2021/08/10 11:40:59;;;;;;;5.22;2.75;;;;;;;;;;5012564;28;20018;-88
2021/08/10 11:43:44;;;;;;;8.77;4.20;;;;;;;;;;5013700;28;20014;-88
2021/08/10 11:46:17;;;;;;;8.27;3.83;;;;;;;;;;5012317;28;20377;-87
2021/08/10 11:48:47;;;;;;;6.97;3.55;;;;;;;;;;5010726;28;20389;-88
2021/08/10 11:51:21;;;;;;;9.85;3.70;;;;;;;;;;5011998;28;20036;-88
2021/08/10 11:53:47;;;;;;;10.25;5.00;;;;;;;;;;5011718;28;20095;-88
2021/08/10 11:56:22;;;;;;;7.90;4.00;;;;;;;;;;5012636;28;20440;-88
2021/08/10 11:58:48;;;;;;;5.72;3.30;;;;;;;;;;5012094;28;20022;-89
2021/08/10 12:01:13;;;;;;;7.93;3.35;;;;;;;;;;5012118;28;20028;-88
2021/08/10 12:03:39;;;;;;;4.45;3.25;;;;;;;;;;5011423;28;20024;-87
2021/08/10 12:06:04;;;;;;;7.55;3.35;;;;;;;;;;5012660;28;20024;-88
2021/08/10 12:08:29;;;;;;;7.97;3.30;;;;;;;;;;5013364;28;20363;-88
2021/08/10 12:10:55;;;;;;;8.88;3.65;;;;;;;;;;5011913;28;20546;-88
2021/08/10 12:13:21;;;;;;;7.55;3.50;;;;;;;;;;5011646;28;20034;-86
2021/08/10 12:15:46;;;;;;;6.78;3.60;;;;;;;;;;5044936;28;20044;-87
2021/08/10 12:18:13;;;;;;;9.90;3.20;;;;;;;;;;5012753;28;20014;-86
2021/08/10 12:20:38;;;;;;;5.55;2.85;;;;;;;;;;5011084;28;20039;-86
2021/08/10 12:23:06;;;;;;;10.30;3.22;;;;;;;;;;5010922;28;20112;-87
2021/08/10 12:25:32;;;;;;;4.97;2.67;;;;;;;;;;5010903;28;20509;-86
2021/08/10 12:28:01;;;;;;;4.57;2.80;;;;;;;;;;5012481;28;20060;-86
2021/08/10 12:30:29;;;;;;;5.22;3.33;;;;;;;;;;5011824;28;20034;-89
2021/08/10 12:33:08;;;;;;;5.65;3.28;;;;;;;;;;5013086;28;20028;-88
2021/08/10 12:35:33;;;;;;;6.82;3.42;;;;;;;;;;5011285;28;20362;-89
2021/08/10 12:37:59;;;;;;;5.20;3.03;;;;;;;;;;5010922;28;20028;-89
2021/08/10 12:40:24;;;;;;;7.00;3.38;;;;;;;;;;5011761;28;20099;-88
2021/08/10 12:42:50;;;;;;;5.80;2.97;;;;;;;;;;5011673;28;20021;-89
2021/08/10 12:45:15;;;;;;;5.88;3.78;;;;;;;;;;5011225;28;20100;-89
2021/08/10 12:47:42;;;;;;;8.45;3.63;;;;;;;;;;5011563;28;20107;-89
2021/08/10 12:50:24;;;;;;;6.32;3.00;;;;;;;;;;5011688;28;20152;-89
2021/08/10 12:52:49;;;;;;;4.72;3.10;;;;;;;;;;5011424;28;20108;-88
2021/08/10 12:55:14;;;;;;;6.07;3.78;;;;;;;;;;5010869;28;20085;-89
2021/08/10 12:57:39;;;;;;;4.95;2.90;;;;;;;;;;5011101;28;20022;-88
2021/08/10 13:00:15;;;;;;;5.78;2.42;;;;;;;;;;5011575;28;20025;-89
2021/08/10 13:02:42;;;;;;;4.32;2.63;;;;;;;;;;5014353;28;20153;-89
2021/08/10 13:05:09;;;;;;;5.38;2.72;;;;;;;;;;5011989;28;20033;-89
2021/08/10 13:07:34;;;;;;;4.40;2.28;;;;;;;;;;5012382;28;20405;-88
2021/08/10 13:10:00;;;;;;;4.85;2.70;;;;;;;;;;5011410;28;20036;-89
2021/08/10 13:12:27;;;;;;;6.10;2.65;;;;;;;;;;5012079;28;20026;-89
2021/08/10 13:14:56;;;;;;;4.40;2.55;;;;;;;;;;5010945;28;20022;-88
2021/08/10 13:17:51;;;;;;;5.05;3.10;;;;;;;;;;5010888;28;20041;-88
2021/08/10 13:20:16;;;;;;;4.18;2.10;;;;;;;;;;5004016;28;20041;-89
2021/08/10 13:22:42;;;;;;;4.55;2.88;;;;;;;;;;5042720;28;20018;-88
2021/08/10 13:25:08;;;;;;;4.20;2.63;;;;;;;;;;5042190;28;20524;-89
2021/08/10 13:27:33;;;;;;;5.32;2.47;;;;;;;;;;5009387;28;20098;-89
2021/08/10 13:29:59;;;;;;;9.20;3.05;;;;;;;;;;5009351;28;20022;-89
2021/08/10 13:32:24;;;;;;;5.07;2.60;;;;;;;;;;5009058;28;20030;-89
2021/08/10 13:34:51;;;;;;;5.25;3.00;;;;;;;;;;5009541;28;20025;-89
2021/08/10 13:37:16;;;;;;;5.43;2.72;;;;;;;;;;5011002;28;20025;-89
2021/08/10 13:39:41;;;;;;;4.85;2.60;;;;;;;;;;5009686;28;20100;-89
2021/08/10 13:42:07;;;;;;;4.68;3.00;;;;;;;;;;5009261;28;20164;-89
2021/08/10 13:44:32;;;;;;;4.25;2.20;;;;;;;;;;5008732;28;20025;-89
2021/08/10 13:46:57;;;;;;;3.63;2.60;;;;;;;;;;5007822;28;20026;-89
2021/08/10 13:49:22;;;;;;;4.72;2.65;;;;;;;;;;5009770;28;20033;-89
2021/08/10 13:51:48;;;;;;;5.22;2.95;;;;;;;;;;5010519;28;20112;-88
2021/08/10 13:54:13;;;;;;;7.07;3.15;;;;;;;;;;5010340;28;20125;-88
2021/08/10 13:56:38;;;;;;;5.47;2.88;;;;;;;;;;5010969;28;20124;-88
2021/08/10 13:59:05;;;;;;;4.97;2.83;;;;;;;;;;5010361;28;20053;-88
2021/08/10 14:01:44;;;;;;;5.43;3.17;;;;;;;;;;5010796;28;20025;-88
2021/08/10 14:04:09;;;;;;;6.90;3.40;;;;;;;;;;5009923;28;20033;-87
2021/08/10 14:06:34;;;;;;;10.32;3.88;;;;;;;;;;5010907;28;20018;-88
2021/08/10 14:08:59;;;;;;;4.65;3.53;;;;;;;;;;5010246;28;20359;-88
2021/08/10 14:11:24;;;;;;;6.15;3.30;;;;;;;;;;5014278;28;20060;-88
2021/08/10 14:13:50;;;;;;;6.93;3.67;;;;;;;;;;5013912;28;20527;-88
2021/08/10 14:16:19;;;;;;;6.55;3.50;;;;;;;;;;5014020;28;20079;-88
2021/08/10 14:18:44;;;;;;;9.18;5.20;;;;;;;;;;5013586;28;20028;-88
2021/08/10 14:21:09;;;;;;;6.68;4.63;;;;;;;;;;5014307;28;20373;-88
2021/08/10 14:23:35;;;;;;;13.32;5.22;;;;;;;;;;5013545;28;20018;-88
2021/08/10 14:26:00;;;;;;;12.00;6.05;;;;;;;;;;5015684;28;20693;-88
2021/08/10 14:28:25;;;;;;;9.85;5.30;;;;;;;;;;5013939;28;20067;-89
2021/08/10 14:30:50;;;;;;;9.98;5.68;;;;;;;;;;5014238;28;20481;-89
2021/08/10 14:33:16;;;;;;;10.70;6.00;;;;;;;;;;5011323;28;20138;-88
2021/08/10 14:35:41;;;;;;;11.70;6.13;;;;;;;;;;5008125;28;20433;-89
2021/08/10 14:38:06;;;;;;;10.07;5.88;;;;;;;;;;5037459;28;20022;-88
2021/08/10 14:40:31;;;;;;;9.13;4.53;;;;;;;;;;5007647;28;20022;-88